createdAt,value
2023-01-12T00:00:25.995Z,74.08
2023-01-12T00:01:27.983Z,73.51
2023-01-12T00:02:29.623Z,74.23
2023-01-12T00:03:31.023Z,73.95
2023-01-12T00:04:32.520Z,73.42
2023-01-12T00:05:34.187Z,73.20
2023-01-12T00:06:35.629Z,73.83
2023-01-12T00:07:37.499Z,73.74
2023-01-12T00:08:38.949Z,73.24
2023-01-12T00:09:40.582Z,73.41
2023-01-12T00:10:42.011Z,73.38
2023-01-12T00:11:43.481Z,73.50
2023-01-12T00:12:45.321Z,73.91
2023-01-12T00:13:47.129Z,73.83
2023-01-12T00:14:48.582Z,74.09
2023-01-12T00:16:08.783Z,73.90
2023-01-12T00:17:12.232Z,74.11
2023-01-12T00:18:13.632Z,74.26
2023-01-12T00:19:20.672Z,73.46
2023-01-12T00:20:22.101Z,74.02
2023-01-12T00:21:23.494Z,74.18
2023-01-12T00:22:24.923Z,73.79
2023-01-12T00:23:26.317Z,73.75
2023-01-12T00:24:31.057Z,73.84
2023-01-12T00:25:32.470Z,73.37
2023-01-12T00:26:34.167Z,73.64
2023-01-12T00:27:35.909Z,73.64
2023-01-12T00:28:41.466Z,73.10
2023-01-12T00:29:43.581Z,73.13
2023-01-12T00:30:45.028Z,73.47
2023-01-12T00:31:46.520Z,72.92
2023-01-12T00:32:49.548Z,72.60
2023-01-12T00:33:50.839Z,72.94
2023-01-12T00:34:52.152Z,72.67
2023-01-12T00:35:53.666Z,73.07
2023-01-12T00:36:55.570Z,73.11
2023-01-12T00:37:56.977Z,73.04
2023-01-12T00:38:58.370Z,73.06
2023-01-12T00:40:02.524Z,73.24
2023-01-12T00:41:32.975Z,72.80
2023-01-12T00:42:53.369Z,73.67
2023-01-12T00:44:13.136Z,72.96
2023-01-12T00:45:24.619Z,72.83
2023-01-12T00:46:30.790Z,73.65
2023-01-12T00:47:33.106Z,73.96
2023-01-12T00:48:34.568Z,72.76
2023-01-12T00:49:37.391Z,72.37
2023-01-12T00:50:39.150Z,72.57
2023-01-12T00:51:41.554Z,72.81
2023-01-12T00:52:43.057Z,72.20
2023-01-12T00:53:44.871Z,72.05
2023-01-12T00:54:46.436Z,72.54
2023-01-12T00:55:47.913Z,71.99
2023-01-12T00:56:49.712Z,72.52
2023-01-12T00:57:51.159Z,71.95
2023-01-12T00:58:52.693Z,71.80
2023-01-12T00:59:55.570Z,71.70
2023-01-12T01:01:07.180Z,72.51
2023-01-12T01:02:08.831Z,72.30
2023-01-12T01:03:10.363Z,71.90
2023-01-12T01:04:11.842Z,71.58
2023-01-12T01:05:13.301Z,71.47
2023-01-12T01:06:14.926Z,71.70
2023-01-12T01:07:17.490Z,71.91
2023-01-12T01:08:18.903Z,71.51
2023-01-12T01:09:20.694Z,71.14
2023-01-12T01:10:22.196Z,71.38
2023-01-12T01:11:23.707Z,71.36
2023-01-12T01:12:25.132Z,71.39
2023-01-12T01:13:26.528Z,72.14
2023-01-12T01:14:27.951Z,71.66
2023-01-12T01:15:29.382Z,71.31
2023-01-12T01:16:32.142Z,71.75
2023-01-12T01:17:34.179Z,71.61
2023-01-12T01:18:35.877Z,71.39
2023-01-12T01:19:37.424Z,71.30
2023-01-12T01:20:38.997Z,71.63
2023-01-12T01:21:40.529Z,70.81
2023-01-12T01:22:42.461Z,71.44
2023-01-12T01:23:44.486Z,71.41
2023-01-12T01:24:47.522Z,71.29
2023-01-12T01:25:48.919Z,71.76
2023-01-12T01:26:51.783Z,71.65
2023-01-12T01:27:53.245Z,71.77
2023-01-12T01:28:54.687Z,71.49
2023-01-12T01:29:56.092Z,71.81
2023-01-12T01:31:05.694Z,71.19
2023-01-12T01:32:07.915Z,71.68
2023-01-12T01:33:09.961Z,72.27
2023-01-12T01:34:11.416Z,71.63
2023-01-12T01:35:12.874Z,71.60
2023-01-12T01:36:15.201Z,71.27
2023-01-12T01:37:17.181Z,71.40
2023-01-12T01:38:18.585Z,71.85
2023-01-12T01:39:19.991Z,71.47
2023-01-12T01:40:21.448Z,71.48
2023-01-12T01:41:28.811Z,71.58
2023-01-12T01:42:30.297Z,71.72
2023-01-12T01:43:53.619Z,71.52
2023-01-12T01:44:57.734Z,71.05
2023-01-12T01:46:08.477Z,71.24
2023-01-12T01:47:24.054Z,71.42
2023-01-12T01:48:29.473Z,71.27
2023-01-12T01:49:47.722Z,72.23
2023-01-12T01:50:57.545Z,72.00
2023-01-12T01:52:16.701Z,72.97
2023-01-12T01:53:22.489Z,72.35
2023-01-12T01:54:24.070Z,72.30
2023-01-12T01:55:33.978Z,71.40
2023-01-12T01:56:37.334Z,71.71
2023-01-12T01:58:01.152Z,71.72
2023-01-12T01:59:10.671Z,71.75
2023-01-12T02:00:13.044Z,71.62
2023-01-12T02:01:14.503Z,72.07
2023-01-12T02:02:16.264Z,71.23
2023-01-12T02:03:18.691Z,71.62
2023-01-12T02:04:20.114Z,72.13
2023-01-12T02:05:25.657Z,71.81
2023-01-12T02:06:28.413Z,71.63
2023-01-12T02:07:30.082Z,71.81
2023-01-12T02:08:45.276Z,71.56
2023-01-12T02:09:46.804Z,71.22
2023-01-12T02:10:49.976Z,71.98
2023-01-12T02:12:12.607Z,71.44
2023-01-12T02:13:33.082Z,71.02
2023-01-12T02:14:53.441Z,71.83
2023-01-12T02:16:22.126Z,71.90
2023-01-12T02:17:45.444Z,71.57
2023-01-12T02:19:04.698Z,71.17
2023-01-12T02:20:21.034Z,71.02
2023-01-12T02:21:31.511Z,71.35
2023-01-12T02:22:46.655Z,72.78
2023-01-12T02:24:23.940Z,72.71
2023-01-12T02:25:46.718Z,72.60
2023-01-12T02:27:09.870Z,72.33
2023-01-12T02:28:44.380Z,72.10
2023-01-12T02:30:07.592Z,72.74
2023-01-12T02:31:11.814Z,72.57
2023-01-12T02:32:24.515Z,72.26
2023-01-12T02:33:34.777Z,72.74
2023-01-12T02:34:51.615Z,72.59
2023-01-12T02:36:28.615Z,71.92
2023-01-12T02:37:46.052Z,72.14
2023-01-12T02:38:59.880Z,71.74
2023-01-12T02:40:09.411Z,71.82
2023-01-12T02:41:54.949Z,72.61
2023-01-12T02:43:09.052Z,72.13
2023-01-12T02:44:19.373Z,71.80
2023-01-12T02:45:45.992Z,71.73
2023-01-12T02:46:51.688Z,72.07
2023-01-12T02:48:05.755Z,71.82
2023-01-12T02:49:14.390Z,71.41
2023-01-12T02:50:22.681Z,71.78
2023-01-12T02:51:32.113Z,71.65
2023-01-12T02:52:34.515Z,71.41
2023-01-12T02:53:47.634Z,72.00
2023-01-12T02:54:49.960Z,72.28
2023-01-12T02:55:52.474Z,72.28
2023-01-12T02:56:56.555Z,73.21
2023-01-12T02:57:59.983Z,72.91
2023-01-12T02:59:05.799Z,72.63
2023-01-12T03:00:08.651Z,72.29
2023-01-12T03:01:11.022Z,72.00
2023-01-12T03:02:16.560Z,72.11
2023-01-12T03:03:19.327Z,72.21
2023-01-12T03:04:23.376Z,71.85
2023-01-12T03:05:24.767Z,71.85
2023-01-12T03:06:26.175Z,72.79
2023-01-12T03:07:30.466Z,72.32
2023-01-12T03:08:33.059Z,72.28
2023-01-12T03:09:39.644Z,72.24
2023-01-12T03:10:51.742Z,72.39
2023-01-12T03:11:59.403Z,72.31
2023-01-12T03:13:06.359Z,72.46
2023-01-12T03:14:10.145Z,72.75
2023-01-12T03:15:14.883Z,71.96
2023-01-12T03:16:21.108Z,72.12
2023-01-12T03:17:31.016Z,72.33
2023-01-12T03:18:53.978Z,72.35
2023-01-12T03:20:01.801Z,72.18
2023-01-12T03:21:11.718Z,72.24
2023-01-12T03:22:16.567Z,72.65
2023-01-12T03:23:26.242Z,72.80
2023-01-12T03:24:37.354Z,73.14
2023-01-12T03:25:43.079Z,72.92
2023-01-12T03:26:49.629Z,72.94
2023-01-12T03:27:54.977Z,73.67
2023-01-12T03:29:05.349Z,74.02
2023-01-12T03:30:34.909Z,74.03
2023-01-12T03:31:37.206Z,74.26
2023-01-12T03:32:38.783Z,74.02
2023-01-12T03:33:42.678Z,74.50
2023-01-12T03:34:45.408Z,73.74
2023-01-12T03:36:08.886Z,74.26
2023-01-12T03:37:31.606Z,74.42
2023-01-12T03:39:14.314Z,74.24
2023-01-12T03:40:23.203Z,74.61
2023-01-12T03:41:45.909Z,74.18
2023-01-12T03:42:57.720Z,74.01
2023-01-12T03:44:03.574Z,74.00
2023-01-12T03:45:23.580Z,73.20
2023-01-12T03:46:33.154Z,73.93
2023-01-12T03:47:36.658Z,73.63
2023-01-12T03:48:41.158Z,73.74
2023-01-12T03:49:50.582Z,73.76
2023-01-12T03:51:32.633Z,73.78
2023-01-12T03:52:38.003Z,74.05
2023-01-12T03:53:42.957Z,73.82
2023-01-12T03:54:46.548Z,73.80
2023-01-12T03:55:52.852Z,74.12
2023-01-12T03:56:54.698Z,73.95
2023-01-12T03:57:57.232Z,73.97
2023-01-12T03:58:58.950Z,73.88
2023-01-12T04:00:02.976Z,73.63
2023-01-12T04:01:05.250Z,74.24
2023-01-12T04:02:06.947Z,74.11
2023-01-12T04:03:12.402Z,73.97
2023-01-12T04:04:13.882Z,73.53
2023-01-12T04:05:16.671Z,73.41
2023-01-12T04:06:18.154Z,73.73
2023-01-12T04:07:19.915Z,73.12
2023-01-12T04:08:22.072Z,72.98
2023-01-12T04:09:25.756Z,73.43
2023-01-12T04:10:27.207Z,73.36
2023-01-12T04:11:47.387Z,73.70
2023-01-12T04:12:49.151Z,73.38
2023-01-12T04:13:50.883Z,73.74
2023-01-12T04:14:52.365Z,73.23
2023-01-12T04:15:53.770Z,73.00
2023-01-12T04:16:55.440Z,73.16
2023-01-12T04:17:56.886Z,73.81
2023-01-12T04:18:58.432Z,73.92
2023-01-12T04:19:59.952Z,73.79
2023-01-12T04:21:01.364Z,73.66
2023-01-12T04:22:21.634Z,74.24
2023-01-12T04:23:23.045Z,74.41
2023-01-12T04:24:24.466Z,74.03
2023-01-12T04:25:25.919Z,74.21
2023-01-12T04:26:27.401Z,73.66
2023-01-12T04:27:28.931Z,73.94
2023-01-12T04:28:30.345Z,74.22
2023-01-12T04:29:31.757Z,74.50
2023-01-12T04:30:34.214Z,74.32
2023-01-12T04:31:35.695Z,73.98
2023-01-12T04:32:37.912Z,74.75
2023-01-12T04:33:39.348Z,74.30
2023-01-12T04:34:40.922Z,74.33
2023-01-12T04:35:42.346Z,74.35
2023-01-12T04:36:43.809Z,74.09
2023-01-12T04:37:46.032Z,73.58
2023-01-12T04:38:47.446Z,73.58
2023-01-12T04:39:48.865Z,74.20
2023-01-12T04:40:54.795Z,73.88
2023-01-12T04:41:56.612Z,73.77
2023-01-12T04:43:00.946Z,73.50
2023-01-12T04:44:02.361Z,73.80
2023-01-12T04:45:04.327Z,73.94
2023-01-12T04:46:07.943Z,74.58
2023-01-12T04:47:10.980Z,74.56
2023-01-12T04:48:13.334Z,74.54
2023-01-12T04:49:14.881Z,74.49
2023-01-12T04:50:16.362Z,73.68
2023-01-12T04:51:17.791Z,74.18
2023-01-12T04:52:19.386Z,74.15
2023-01-12T04:53:22.384Z,74.33
2023-01-12T04:54:23.705Z,74.43
2023-01-12T04:55:25.160Z,74.21
2023-01-12T04:56:26.583Z,73.56
2023-01-12T04:57:28.166Z,73.93
2023-01-12T04:58:29.572Z,73.83
2023-01-12T04:59:30.942Z,73.53
2023-01-12T05:00:33.071Z,73.53
2023-01-12T05:01:36.641Z,73.13
2023-01-12T05:02:38.485Z,73.49
2023-01-12T05:03:40.231Z,73.03
2023-01-12T05:04:42.651Z,73.20
2023-01-12T05:05:44.074Z,73.59
2023-01-12T05:06:45.458Z,73.38
2023-01-12T05:08:05.487Z,73.25
2023-01-12T05:09:27.344Z,73.85
2023-01-12T05:10:30.009Z,73.57
2023-01-12T05:11:31.419Z,73.66
2023-01-12T05:12:33.412Z,72.72
2023-01-12T05:13:34.817Z,73.33
2023-01-12T05:14:36.204Z,73.49
2023-01-12T05:15:37.628Z,73.04
2023-01-12T05:16:39.231Z,73.42
2023-01-12T05:17:40.987Z,73.55
2023-01-12T05:18:44.921Z,73.90
2023-01-12T05:19:46.466Z,73.15
2023-01-12T05:20:47.891Z,73.40
2023-01-12T05:21:49.275Z,73.38
2023-01-12T05:22:52.808Z,72.72
2023-01-12T05:23:54.194Z,73.09
2023-01-12T05:24:55.603Z,73.66
2023-01-12T05:26:01.353Z,73.39
2023-01-12T05:27:03.169Z,72.59
2023-01-12T05:28:04.718Z,73.49
2023-01-12T05:29:07.969Z,73.23
2023-01-12T05:30:09.985Z,72.90
2023-01-12T05:31:13.471Z,73.69
2023-01-12T05:32:15.341Z,73.51
2023-01-12T05:33:16.900Z,73.20
2023-01-12T05:34:19.787Z,73.04
2023-01-12T05:35:21.884Z,73.14
2023-01-12T05:36:26.317Z,73.03
2023-01-12T05:37:28.583Z,72.79
2023-01-12T05:38:30.295Z,73.18
2023-01-12T05:39:31.727Z,72.60
2023-01-12T05:40:33.188Z,72.52
2023-01-12T05:41:34.606Z,72.27
2023-01-12T05:42:55.116Z,72.35
2023-01-12T05:43:56.529Z,72.96
2023-01-12T05:44:57.916Z,72.52
2023-01-12T05:46:05.931Z,72.92
2023-01-12T05:47:07.366Z,72.32
2023-01-12T05:48:09.913Z,71.99
2023-01-12T05:49:11.362Z,72.19
2023-01-12T05:50:12.884Z,72.51
2023-01-12T05:51:15.009Z,72.68
2023-01-12T05:52:16.776Z,72.60
2023-01-12T05:53:18.268Z,72.93
2023-01-12T05:54:19.658Z,72.80
2023-01-12T05:55:21.060Z,71.89
2023-01-12T05:56:27.563Z,72.44
2023-01-12T05:57:30.451Z,72.29
2023-01-12T05:58:31.852Z,72.72
2023-01-12T05:59:33.300Z,72.93
2023-01-12T06:00:34.804Z,73.15
2023-01-12T06:01:36.223Z,72.57
2023-01-12T06:02:38.092Z,72.75
2023-01-12T06:03:39.565Z,72.45
2023-01-12T06:04:41.040Z,72.96
2023-01-12T06:05:42.620Z,72.35
2023-01-12T06:06:44.129Z,72.63
2023-01-12T06:07:46.429Z,73.00
2023-01-12T06:08:50.691Z,73.11
2023-01-12T06:09:53.646Z,73.00
2023-01-12T06:10:55.074Z,72.51
2023-01-12T06:12:15.461Z,73.08
2023-01-12T06:13:35.121Z,72.95
2023-01-12T06:14:36.582Z,73.04
2023-01-12T06:15:38.063Z,73.49
2023-01-12T06:16:41.818Z,73.58
2023-01-12T06:17:43.611Z,73.38
2023-01-12T06:18:48.063Z,73.71
2023-01-12T06:19:49.471Z,73.35
2023-01-12T06:20:50.894Z,73.51
2023-01-12T06:21:54.339Z,73.20
2023-01-12T06:22:56.101Z,73.88
2023-01-12T06:23:57.525Z,73.43
2023-01-12T06:24:58.932Z,73.28
2023-01-12T06:26:01.471Z,73.77
2023-01-12T06:27:03.527Z,73.43
2023-01-12T06:28:06.396Z,73.51
2023-01-12T06:29:07.985Z,73.16
2023-01-12T06:30:10.163Z,73.08
2023-01-12T06:31:13.383Z,72.63
2023-01-12T06:32:15.284Z,72.82
2023-01-12T06:33:16.769Z,73.22
2023-01-12T06:34:18.233Z,73.30
2023-01-12T06:35:20.148Z,73.20
2023-01-12T06:36:21.637Z,73.17
2023-01-12T06:37:23.133Z,72.49
2023-01-12T06:38:26.119Z,71.96
2023-01-12T06:39:27.444Z,72.21
2023-01-12T06:40:28.889Z,71.81
2023-01-12T06:41:49.075Z,71.43
2023-01-12T06:42:51.028Z,71.93
2023-01-12T06:43:52.438Z,71.81
2023-01-12T06:44:54.246Z,71.86
2023-01-12T06:45:55.808Z,72.12
2023-01-12T06:46:57.584Z,72.76
2023-01-12T06:47:59.084Z,72.77
2023-01-12T06:49:00.547Z,72.99
2023-01-12T06:50:01.994Z,72.70
2023-01-12T06:51:05.035Z,72.72
2023-01-12T06:52:07.152Z,72.75
2023-01-12T06:53:09.769Z,73.59
2023-01-12T06:54:11.208Z,73.06
2023-01-12T06:55:12.760Z,72.89
2023-01-12T06:56:14.178Z,73.18
2023-01-12T06:57:16.137Z,72.40
2023-01-12T06:58:17.903Z,72.34
2023-01-12T06:59:19.298Z,72.39
2023-01-12T07:00:21.440Z,72.13
2023-01-12T07:01:24.963Z,72.34
2023-01-12T07:02:26.911Z,71.71
2023-01-12T07:03:28.426Z,71.95
2023-01-12T07:04:29.992Z,72.03
2023-01-12T07:05:31.547Z,72.48
2023-01-12T07:06:33.556Z,72.96
2023-01-12T07:07:39.981Z,72.79
2023-01-12T07:08:42.895Z,72.37
2023-01-12T07:09:44.355Z,72.13
2023-01-12T07:10:46.472Z,72.47
2023-01-12T07:11:48.289Z,72.75
2023-01-12T07:12:50.238Z,72.92
2023-01-12T07:13:51.776Z,72.29
2023-01-12T07:14:53.268Z,72.00
2023-01-12T07:15:54.829Z,72.32
2023-01-12T07:16:56.661Z,72.25
2023-01-12T07:17:58.724Z,72.28
2023-01-12T07:19:00.121Z,72.68
2023-01-12T07:20:01.600Z,72.74
2023-01-12T07:21:08.080Z,72.32
2023-01-12T07:22:10.103Z,72.35
2023-01-12T07:23:11.527Z,72.66
2023-01-12T07:24:13.006Z,72.22
2023-01-12T07:25:14.508Z,72.10
2023-01-12T07:26:16.254Z,72.09
2023-01-12T07:27:17.656Z,71.63
2023-01-12T07:28:19.081Z,71.05
2023-01-12T07:29:20.501Z,70.83
2023-01-12T07:30:22.835Z,70.74
2023-01-12T07:31:24.766Z,70.48
2023-01-12T07:32:27.441Z,70.96
2023-01-12T07:33:29.156Z,70.54
2023-01-12T07:34:30.577Z,70.52
2023-01-12T07:35:32.020Z,70.81
2023-01-12T07:36:33.828Z,71.09
2023-01-12T07:37:35.402Z,70.96
2023-01-12T07:38:38.210Z,70.54
2023-01-12T07:39:39.728Z,70.55
2023-01-12T07:40:41.187Z,70.31
2023-01-12T07:42:01.680Z,70.71
2023-01-12T07:43:08.693Z,70.46
2023-01-12T07:44:10.233Z,70.50
2023-01-12T07:45:12.048Z,70.52
2023-01-12T07:46:13.677Z,70.51
2023-01-12T07:47:15.565Z,70.78
2023-01-12T07:48:17.139Z,70.83
2023-01-12T07:49:18.640Z,69.81
2023-01-12T07:50:21.516Z,70.23
2023-01-12T07:51:22.991Z,70.34
2023-01-12T07:52:24.796Z,70.40
2023-01-12T07:53:26.504Z,69.58
2023-01-12T07:54:27.952Z,69.74
2023-01-12T07:55:30.950Z,69.57
2023-01-12T07:56:32.599Z,69.79
2023-01-12T07:57:34.104Z,69.57
2023-01-12T07:58:36.359Z,69.67
2023-01-12T07:59:37.881Z,70.19
2023-01-12T08:00:39.344Z,69.76
2023-01-12T08:01:41.536Z,70.02
2023-01-12T08:02:43.121Z,69.58
2023-01-12T08:03:44.808Z,69.69
2023-01-12T08:04:46.910Z,69.07
2023-01-12T08:05:48.451Z,68.80
2023-01-12T08:06:50.244Z,68.54
2023-01-12T08:07:51.821Z,68.05
2023-01-12T08:08:54.627Z,68.49
2023-01-12T08:09:56.205Z,68.12
2023-01-12T08:11:04.878Z,68.28
2023-01-12T08:12:06.345Z,68.10
2023-01-12T08:13:07.739Z,68.39
2023-01-12T08:14:12.203Z,68.24
2023-01-12T08:15:13.658Z,67.76
2023-01-12T08:16:21.082Z,68.01
2023-01-12T08:17:23.880Z,68.16
2023-01-12T08:18:31.374Z,67.73
2023-01-12T08:19:38.788Z,67.52
2023-01-12T08:20:40.718Z,67.30
2023-01-12T08:21:48.467Z,67.70
2023-01-12T08:22:54.208Z,67.76
2023-01-12T08:23:59.189Z,68.22
2023-01-12T08:25:06.193Z,68.25
2023-01-12T08:26:15.463Z,68.77
2023-01-12T08:27:21.180Z,68.11
2023-01-12T08:28:29.587Z,68.28
2023-01-12T08:29:44.130Z,67.94
2023-01-12T08:30:48.726Z,68.48
2023-01-12T08:31:50.641Z,68.38
2023-01-12T08:33:00.721Z,69.09
2023-01-12T08:34:02.663Z,68.59
2023-01-12T08:35:05.111Z,68.82
2023-01-12T08:36:10.476Z,68.12
2023-01-12T08:37:14.561Z,68.15
2023-01-12T08:38:16.814Z,67.94
2023-01-12T08:39:18.357Z,67.49
2023-01-12T08:40:19.893Z,66.93
2023-01-12T08:41:33.795Z,67.13
2023-01-12T08:42:35.397Z,67.36
2023-01-12T08:43:55.641Z,67.04
2023-01-12T08:44:57.152Z,67.06
2023-01-12T08:46:07.735Z,66.52
2023-01-12T08:47:18.505Z,67.02
2023-01-12T08:48:20.043Z,66.96
2023-01-12T08:49:24.636Z,67.23
2023-01-12T08:50:26.166Z,66.54
2023-01-12T08:51:28.431Z,66.70
2023-01-12T08:52:30.355Z,66.49
2023-01-12T08:53:32.196Z,66.53
2023-01-12T08:54:33.715Z,66.67
2023-01-12T08:55:35.176Z,66.12
2023-01-12T08:56:36.788Z,66.82
2023-01-12T08:57:38.731Z,66.69
2023-01-12T08:58:40.457Z,67.55
2023-01-12T08:59:41.970Z,66.86
2023-01-12T09:00:43.438Z,67.22
2023-01-12T09:01:45.966Z,67.08
2023-01-12T09:02:47.587Z,66.54
2023-01-12T09:03:49.500Z,66.27
2023-01-12T09:04:50.946Z,66.29
2023-01-12T09:05:52.422Z,66.41
2023-01-12T09:06:54.325Z,66.42
2023-01-12T09:07:55.740Z,66.53
2023-01-12T09:08:59.844Z,66.65
2023-01-12T09:10:01.293Z,66.27
2023-01-12T09:11:06.419Z,66.50
2023-01-12T09:12:08.359Z,66.61
2023-01-12T09:13:15.529Z,67.07
2023-01-12T09:14:17.427Z,66.34
2023-01-12T09:15:18.940Z,66.27
2023-01-12T09:16:20.447Z,66.26
2023-01-12T09:17:23.496Z,66.27
2023-01-12T09:18:24.811Z,66.35
2023-01-12T09:19:26.233Z,66.17
2023-01-12T09:20:27.582Z,66.11
2023-01-12T09:21:30.516Z,66.69
2023-01-12T09:22:31.889Z,66.43
2023-01-12T09:23:34.257Z,66.88
2023-01-12T09:24:35.826Z,65.54
2023-01-12T09:25:37.280Z,65.39
2023-01-12T09:26:45.012Z,66.25
2023-01-12T09:27:46.481Z,66.68
2023-01-12T09:28:48.235Z,66.51
2023-01-12T09:29:49.817Z,66.04
2023-01-12T09:30:51.376Z,65.71
2023-01-12T09:31:53.267Z,65.43
2023-01-12T09:32:55.359Z,65.62
2023-01-12T09:33:57.355Z,65.49
2023-01-12T09:34:59.832Z,66.03
2023-01-12T09:36:06.609Z,65.98
2023-01-12T09:37:08.467Z,65.59
2023-01-12T09:38:11.670Z,65.83
2023-01-12T09:39:26.993Z,65.62
2023-01-12T09:40:29.045Z,66.00
2023-01-12T09:42:04.157Z,65.61
2023-01-12T09:43:24.278Z,65.13
2023-01-12T09:44:48.435Z,65.16
2023-01-12T09:46:08.645Z,65.85
2023-01-12T09:47:40.693Z,65.83
2023-01-12T09:48:42.661Z,65.99
2023-01-12T09:49:50.363Z,65.70
2023-01-12T09:50:59.944Z,65.71
2023-01-12T09:52:17.850Z,65.93
2023-01-12T09:53:26.606Z,66.01
2023-01-12T09:54:28.107Z,66.02
2023-01-12T09:55:45.309Z,66.50
2023-01-12T09:57:07.151Z,66.18
2023-01-12T09:58:14.408Z,65.80
2023-01-12T09:59:38.340Z,66.41
2023-01-12T10:00:39.999Z,66.54
2023-01-12T10:01:41.884Z,67.39
2023-01-12T10:03:12.013Z,67.65
2023-01-12T10:04:14.545Z,66.18
2023-01-12T10:05:39.928Z,66.59
2023-01-12T10:06:41.855Z,66.86
2023-01-12T10:07:44.060Z,66.69
2023-01-12T10:08:51.689Z,67.63
2023-01-12T10:09:53.186Z,67.06
2023-01-12T10:11:22.602Z,67.07
2023-01-12T10:12:32.316Z,67.28
2023-01-12T10:14:02.062Z,66.62
2023-01-12T10:15:25.213Z,67.57
2023-01-12T10:16:54.667Z,66.90
2023-01-12T10:18:17.807Z,66.43
2023-01-12T10:19:34.770Z,66.54
2023-01-12T10:20:42.693Z,66.52
2023-01-12T10:21:44.393Z,66.04
2023-01-12T10:22:49.806Z,65.38
2023-01-12T10:23:55.014Z,65.26
2023-01-12T10:24:56.561Z,65.82
2023-01-12T10:26:23.189Z,65.72
2023-01-12T10:27:24.748Z,65.61
2023-01-12T10:28:30.048Z,66.04
2023-01-12T10:29:32.863Z,65.50
2023-01-12T10:30:40.035Z,64.81
2023-01-12T10:31:41.712Z,65.38
2023-01-12T10:32:43.709Z,65.57
2023-01-12T10:34:06.876Z,64.97
2023-01-12T10:35:20.223Z,65.33
2023-01-12T10:37:22.379Z,64.78
2023-01-12T10:38:23.835Z,64.92
2023-01-12T10:39:34.494Z,65.55
2023-01-12T10:40:35.990Z,66.12
2023-01-12T10:41:40.088Z,64.95
2023-01-12T10:43:15.763Z,65.70
2023-01-12T10:44:21.393Z,65.30
2023-01-12T10:45:24.058Z,65.92
2023-01-12T10:46:31.664Z,65.64
2023-01-12T10:47:33.401Z,65.61
2023-01-12T10:48:35.619Z,65.49
2023-01-12T10:49:38.307Z,65.08
2023-01-12T10:50:40.129Z,65.39
2023-01-12T10:52:20.268Z,65.83
2023-01-12T10:53:26.559Z,65.97
2023-01-12T10:54:31.478Z,66.17
2023-01-12T10:55:38.008Z,66.82
2023-01-12T10:56:43.456Z,66.55
2023-01-12T10:57:46.887Z,66.59
2023-01-12T10:58:53.749Z,67.67
2023-01-12T10:59:59.344Z,68.60
2023-01-12T11:01:00.932Z,68.48
2023-01-12T11:02:05.505Z,69.63
2023-01-12T11:03:30.874Z,69.49
2023-01-12T11:04:46.741Z,69.12
2023-01-12T11:05:48.163Z,68.71
2023-01-12T11:07:09.001Z,69.07
2023-01-12T11:08:26.699Z,69.08
2023-01-12T11:09:31.492Z,68.59
2023-01-12T11:10:37.474Z,68.30
2023-01-12T11:11:39.061Z,68.74
2023-01-12T11:12:40.741Z,68.32
2023-01-12T11:13:44.015Z,68.91
2023-01-12T11:15:11.995Z,69.41
2023-01-12T11:16:21.886Z,69.26
2023-01-12T11:17:38.704Z,68.84
2023-01-12T11:18:47.299Z,69.88
2023-01-12T11:19:51.911Z,69.69
2023-01-12T11:21:02.932Z,69.26
2023-01-12T11:22:10.710Z,69.37
2023-01-12T11:23:21.889Z,69.57
2023-01-12T11:24:49.949Z,69.66
2023-01-12T11:25:53.172Z,69.44
2023-01-12T11:26:59.897Z,69.19
2023-01-12T11:28:10.822Z,68.78
2023-01-12T11:29:29.129Z,69.49
2023-01-12T11:30:44.222Z,70.12
2023-01-12T11:31:47.283Z,70.07
2023-01-12T11:33:00.073Z,70.54
2023-01-12T11:34:25.026Z,70.06
2023-01-12T11:35:26.425Z,70.89
2023-01-12T11:36:32.781Z,71.02
2023-01-12T11:37:39.589Z,72.07
2023-01-12T11:38:45.486Z,72.33
2023-01-12T11:39:52.554Z,73.20
2023-01-12T11:40:56.707Z,72.21
2023-01-12T11:42:30.038Z,73.42
2023-01-12T11:43:56.156Z,73.35
2023-01-12T11:45:29.761Z,73.19
2023-01-12T11:46:35.914Z,73.98
2023-01-12T11:47:43.252Z,73.67
2023-01-12T11:49:05.422Z,74.75
2023-01-12T11:50:16.612Z,74.86
2023-01-12T11:51:18.737Z,73.66
2023-01-12T11:52:20.298Z,73.19
2023-01-12T11:53:23.922Z,73.34
2023-01-12T11:54:28.467Z,73.86
2023-01-12T11:55:46.270Z,73.54
2023-01-12T11:57:12.390Z,73.40
2023-01-12T11:58:55.622Z,73.37
2023-01-12T12:00:31.106Z,73.94
2023-01-12T12:02:00.279Z,72.91
2023-01-12T12:03:39.974Z,73.01
2023-01-12T12:05:00.993Z,73.44
2023-01-12T12:06:28.116Z,71.70
2023-01-12T12:08:07.948Z,70.34
2023-01-12T12:09:09.607Z,71.46
2023-01-12T12:10:27.583Z,71.39
2023-01-12T12:11:41.940Z,70.83
2023-01-12T12:13:15.100Z,70.00
2023-01-12T12:14:29.012Z,69.90
2023-01-12T12:15:46.881Z,68.88
2023-01-12T12:16:58.966Z,68.56
2023-01-12T12:18:41.617Z,68.43
2023-01-12T12:20:06.215Z,67.66
2023-01-12T12:21:19.805Z,67.97
2023-01-12T12:22:42.671Z,67.63
2023-01-12T12:23:59.379Z,67.76
2023-01-12T12:25:19.314Z,67.31
2023-01-12T12:26:30.382Z,66.90
2023-01-12T12:27:38.008Z,67.33
2023-01-12T12:28:55.169Z,66.65
2023-01-12T12:30:15.140Z,66.30
2023-01-12T12:31:47.473Z,66.42
2023-01-12T12:33:09.712Z,66.38
2023-01-12T12:34:37.379Z,65.94
2023-01-12T12:35:44.819Z,66.56
2023-01-12T12:37:11.476Z,66.33
2023-01-12T12:38:31.167Z,66.99
2023-01-12T12:39:49.432Z,67.45
2023-01-12T12:41:51.658Z,67.20
2023-01-12T12:43:33.136Z,67.45
2023-01-12T12:45:18.859Z,66.47
2023-01-12T12:46:59.361Z,66.86
2023-01-12T12:48:06.269Z,66.85
2023-01-12T12:49:30.326Z,65.76
2023-01-12T12:50:45.629Z,66.38
2023-01-12T12:51:47.123Z,66.10
2023-01-12T12:53:01.770Z,65.78
2023-01-12T12:54:06.610Z,65.71
2023-01-12T12:55:11.336Z,65.72
2023-01-12T12:56:16.282Z,66.07
2023-01-12T12:57:18.222Z,65.78
2023-01-12T12:58:22.870Z,65.72
2023-01-12T12:59:33.351Z,65.43
2023-01-12T13:00:42.588Z,65.50
2023-01-12T13:01:55.418Z,65.84
2023-01-12T13:02:58.675Z,65.60
2023-01-12T13:04:02.461Z,66.43
2023-01-12T13:05:06.151Z,65.67
2023-01-12T13:06:10.401Z,65.41
2023-01-12T13:07:19.273Z,65.88
2023-01-12T13:08:27.393Z,66.47
2023-01-12T13:09:28.807Z,66.44
2023-01-12T13:10:31.996Z,66.49
2023-01-12T13:11:55.893Z,66.43
2023-01-12T13:13:01.247Z,65.94
2023-01-12T13:14:18.663Z,65.93
2023-01-12T13:15:26.371Z,66.25
2023-01-12T13:16:29.411Z,66.07
2023-01-12T13:17:31.696Z,66.41
2023-01-12T13:18:41.373Z,66.69
2023-01-12T13:19:47.402Z,67.23
2023-01-12T13:20:53.027Z,67.18
2023-01-12T13:21:58.457Z,67.06
2023-01-12T13:22:59.926Z,68.34
2023-01-12T13:24:10.552Z,68.09
2023-01-12T13:25:22.195Z,67.63
2023-01-12T13:26:37.376Z,68.03
2023-01-12T13:27:52.407Z,68.72
2023-01-12T13:29:28.345Z,67.60
2023-01-12T13:30:29.777Z,67.35
2023-01-12T13:31:33.065Z,66.83
2023-01-12T13:32:41.081Z,66.62
2023-01-12T13:33:43.225Z,66.70
2023-01-12T13:34:46.491Z,67.28
2023-01-12T13:35:48.000Z,67.43
2023-01-12T13:37:19.314Z,68.12
2023-01-12T13:38:39.500Z,67.48
2023-01-12T13:39:52.341Z,68.15
2023-01-12T13:41:04.515Z,69.17
2023-01-12T13:42:36.286Z,68.38
2023-01-12T13:43:42.023Z,68.68
2023-01-12T13:44:45.752Z,68.52
2023-01-12T13:45:54.693Z,68.26
2023-01-12T13:47:03.489Z,68.75
2023-01-12T13:48:07.101Z,68.98
2023-01-12T13:49:30.004Z,68.31
2023-01-12T13:50:34.768Z,68.53
2023-01-12T13:51:54.433Z,68.34
2023-01-12T13:53:00.601Z,68.24
2023-01-12T13:54:16.235Z,67.89
2023-01-12T13:55:24.009Z,68.13
2023-01-12T13:56:25.824Z,68.29
2023-01-12T13:57:29.927Z,68.50
2023-01-12T13:58:41.591Z,68.29
2023-01-12T13:59:59.140Z,68.34
2023-01-12T14:01:01.302Z,68.57
2023-01-12T14:02:03.584Z,68.22
2023-01-12T14:03:05.744Z,67.88
2023-01-12T14:04:19.945Z,67.26
2023-01-12T14:05:36.726Z,67.68
2023-01-12T14:06:38.267Z,67.89
2023-01-12T14:08:02.774Z,67.17
2023-01-12T14:09:12.192Z,67.04
2023-01-12T14:10:20.384Z,66.67
2023-01-12T14:11:40.411Z,67.46
2023-01-12T14:13:28.507Z,67.64
2023-01-12T14:15:07.549Z,67.41
2023-01-12T14:16:34.541Z,67.48
2023-01-12T14:17:57.605Z,66.84
2023-01-12T14:18:59.608Z,67.42
2023-01-12T14:20:01.055Z,67.04
2023-01-12T14:21:02.465Z,66.95
2023-01-12T14:22:04.996Z,67.29
2023-01-12T14:23:15.563Z,66.55
2023-01-12T14:24:22.239Z,66.83
2023-01-12T14:25:25.932Z,66.72
2023-01-12T14:26:27.476Z,66.93
2023-01-12T14:27:28.937Z,66.70